sensor_id;sensor_type;location;lat;lon;timestamp;temperature;humidity
4828;DHT22;2428;48.732;9.148;2022-10-18T00:00:05;15.00;99.90
4828;DHT22;2428;48.732;9.148;2022-10-18T00:02:31;15.00;99.90
4828;DHT22;2428;48.732;9.148;2022-10-18T00:04:57;15.00;99.90
4828;DHT22;2428;48.732;9.148;2022-10-18T00:07:22;15.00;99.90
4828;DHT22;2428;48.732;9.148;2022-10-18T00:09:48;15.00;99.90
4828;DHT22;2428;48.732;9.148;2022-10-18T00:12:14;14.90;99.90
4828;DHT22;2428;48.732;9.148;2022-10-18T00:14:39;14.90;99.90
4828;DHT22;2428;48.732;9.148;2022-10-18T00:17:05;14.90;99.90
4828;DHT22;2428;48.732;9.148;2022-10-18T00:19:30;14.90;99.90
4828;DHT22;2428;48.732;9.148;2022-10-18T00:21:56;14.80;99.90
4828;DHT22;2428;48.732;9.148;2022-10-18T00:24:21;14.80;99.90
4828;DHT22;2428;48.732;9.148;2022-10-18T00:26:47;14.80;99.90
4828;DHT22;2428;48.732;9.148;2022-10-18T00:29:14;14.80;99.90
4828;DHT22;2428;48.732;9.148;2022-10-18T00:31:40;14.80;99.90
4828;DHT22;2428;48.732;9.148;2022-10-18T00:34:13;14.80;99.90
4828;DHT22;2428;48.732;9.148;2022-10-18T00:36:39;14.80;99.90
4828;DHT22;2428;48.732;9.148;2022-10-18T00:39:07;14.90;99.90
4828;DHT22;2428;48.732;9.148;2022-10-18T00:41:34;14.80;99.90
4828;DHT22;2428;48.732;9.148;2022-10-18T00:46:34;14.80;99.90
4828;DHT22;2428;48.732;9.148;2022-10-18T00:54:14;14.80;99.90
4828;DHT22;2428;48.732;9.148;2022-10-18T00:56:40;14.80;99.90
4828;DHT22;2428;48.732;9.148;2022-10-18T00:59:09;14.90;99.90
4828;DHT22;2428;48.732;9.148;2022-10-18T01:01:35;14.90;99.90
4828;DHT22;2428;48.732;9.148;2022-10-18T01:04:00;14.90;99.90
4828;DHT22;2428;48.732;9.148;2022-10-18T01:06:27;14.90;99.90
4828;DHT22;2428;48.732;9.148;2022-10-18T01:26:29;14.90;99.90
4828;DHT22;2428;48.732;9.148;2022-10-18T01:31:56;14.90;99.90
4828;DHT22;2428;48.732;9.148;2022-10-18T01:34:25;15.00;99.90
4828;DHT22;2428;48.732;9.148;2022-10-18T01:36:53;14.90;99.90
4828;DHT22;2428;48.732;9.148;2022-10-18T01:39:23;14.90;99.90
4828;DHT22;2428;48.732;9.148;2022-10-18T01:41:51;14.90;99.90
4828;DHT22;2428;48.732;9.148;2022-10-18T01:44:22;15.00;99.90
4828;DHT22;2428;48.732;9.148;2022-10-18T01:46:49;14.90;99.90
4828;DHT22;2428;48.732;9.148;2022-10-18T01:49:16;14.90;99.90
4828;DHT22;2428;48.732;9.148;2022-10-18T01:51:41;14.90;99.90
4828;DHT22;2428;48.732;9.148;2022-10-18T01:54:09;14.90;99.90
4828;DHT22;2428;48.732;9.148;2022-10-18T02:04:35;15.00;99.90
4828;DHT22;2428;48.732;9.148;2022-10-18T02:07:37;15.10;99.90
4828;DHT22;2428;48.732;9.148;2022-10-18T02:10:13;15.10;99.90
4828;DHT22;2428;48.732;9.148;2022-10-18T02:12:43;15.10;99.90
4828;DHT22;2428;48.732;9.148;2022-10-18T02:15:12;15.20;99.90
4828;DHT22;2428;48.732;9.148;2022-10-18T02:17:39;15.20;99.90
4828;DHT22;2428;48.732;9.148;2022-10-18T02:20:08;15.20;99.90
4828;DHT22;2428;48.732;9.148;2022-10-18T02:22:35;15.20;99.90
4828;DHT22;2428;48.732;9.148;2022-10-18T02:25:04;15.20;99.90
4828;DHT22;2428;48.732;9.148;2022-10-18T02:27:31;15.20;99.90
4828;DHT22;2428;48.732;9.148;2022-10-18T02:29:57;15.20;99.90
4828;DHT22;2428;48.732;9.148;2022-10-18T02:32:48;15.20;99.90
4828;DHT22;2428;48.732;9.148;2022-10-18T02:35:25;15.20;99.90
4828;DHT22;2428;48.732;9.148;2022-10-18T02:37:52;15.30;99.90
4828;DHT22;2428;48.732;9.148;2022-10-18T02:40:19;15.30;99.90
4828;DHT22;2428;48.732;9.148;2022-10-18T02:42:51;15.30;99.90
4828;DHT22;2428;48.732;9.148;2022-10-18T02:45:18;15.30;99.90
4828;DHT22;2428;48.732;9.148;2022-10-18T02:47:51;15.30;99.90
4828;DHT22;2428;48.732;9.148;2022-10-18T02:50:17;15.20;99.90
4828;DHT22;2428;48.732;9.148;2022-10-18T02:52:43;15.30;99.90
4828;DHT22;2428;48.732;9.148;2022-10-18T02:55:09;15.20;99.90
4828;DHT22;2428;48.732;9.148;2022-10-18T02:57:35;15.20;99.90
4828;DHT22;2428;48.732;9.148;2022-10-18T03:00:01;15.20;99.90
4828;DHT22;2428;48.732;9.148;2022-10-18T03:02:27;15.20;99.90
4828;DHT22;2428;48.732;9.148;2022-10-18T03:04:53;15.20;99.90
4828;DHT22;2428;48.732;9.148;2022-10-18T03:07:18;15.20;99.90
4828;DHT22;2428;48.732;9.148;2022-10-18T03:09:44;15.30;99.90
4828;DHT22;2428;48.732;9.148;2022-10-18T03:12:09;15.30;99.90
4828;DHT22;2428;48.732;9.148;2022-10-18T03:14:35;15.30;99.90
4828;DHT22;2428;48.732;9.148;2022-10-18T03:17:00;15.30;99.90
4828;DHT22;2428;48.732;9.148;2022-10-18T03:19:26;15.30;99.90
4828;DHT22;2428;48.732;9.148;2022-10-18T03:21:51;15.30;99.90
4828;DHT22;2428;48.732;9.148;2022-10-18T03:24:17;15.30;99.90
4828;DHT22;2428;48.732;9.148;2022-10-18T03:26:42;15.30;99.90
4828;DHT22;2428;48.732;9.148;2022-10-18T03:29:09;15.40;99.90
4828;DHT22;2428;48.732;9.148;2022-10-18T03:31:35;15.40;99.90
4828;DHT22;2428;48.732;9.148;2022-10-18T03:34:00;15.30;99.90
4828;DHT22;2428;48.732;9.148;2022-10-18T03:36:26;15.30;99.90
4828;DHT22;2428;48.732;9.148;2022-10-18T03:38:52;15.30;99.90
4828;DHT22;2428;48.732;9.148;2022-10-18T03:41:17;15.30;99.90
4828;DHT22;2428;48.732;9.148;2022-10-18T03:43:44;15.20;99.90
4828;DHT22;2428;48.732;9.148;2022-10-18T03:46:09;15.20;99.90
4828;DHT22;2428;48.732;9.148;2022-10-18T03:48:35;15.20;99.90
4828;DHT22;2428;48.732;9.148;2022-10-18T03:51:00;15.30;99.90
4828;DHT22;2428;48.732;9.148;2022-10-18T03:53:26;15.30;99.90
4828;DHT22;2428;48.732;9.148;2022-10-18T03:55:53;15.30;99.90
4828;DHT22;2428;48.732;9.148;2022-10-18T03:58:19;15.30;99.90
4828;DHT22;2428;48.732;9.148;2022-10-18T04:00:48;15.20;99.90
4828;DHT22;2428;48.732;9.148;2022-10-18T04:03:14;15.20;99.90
4828;DHT22;2428;48.732;9.148;2022-10-18T04:05:40;15.30;99.90
4828;DHT22;2428;48.732;9.148;2022-10-18T04:08:05;15.20;99.90
4828;DHT22;2428;48.732;9.148;2022-10-18T04:10:31;15.20;99.90
4828;DHT22;2428;48.732;9.148;2022-10-18T04:12:56;15.10;99.90
4828;DHT22;2428;48.732;9.148;2022-10-18T04:15:22;15.10;99.90
4828;DHT22;2428;48.732;9.148;2022-10-18T04:17:47;15.10;99.90
4828;DHT22;2428;48.732;9.148;2022-10-18T04:20:13;15.10;99.90
4828;DHT22;2428;48.732;9.148;2022-10-18T04:22:39;15.00;99.90
4828;DHT22;2428;48.732;9.148;2022-10-18T04:25:05;15.00;99.90
4828;DHT22;2428;48.732;9.148;2022-10-18T04:27:30;15.00;99.90
4828;DHT22;2428;48.732;9.148;2022-10-18T04:29:56;14.90;99.90
4828;DHT22;2428;48.732;9.148;2022-10-18T04:32:22;14.90;99.90
4828;DHT22;2428;48.732;9.148;2022-10-18T04:34:47;14.90;99.90
4828;DHT22;2428;48.732;9.148;2022-10-18T04:37:13;14.90;99.90
4828;DHT22;2428;48.732;9.148;2022-10-18T04:39:38;14.80;99.90
4828;DHT22;2428;48.732;9.148;2022-10-18T04:42:04;14.80;99.90
4828;DHT22;2428;48.732;9.148;2022-10-18T04:44:29;14.80;99.90
4828;DHT22;2428;48.732;9.148;2022-10-18T04:46:55;14.90;99.90
4828;DHT22;2428;48.732;9.148;2022-10-18T04:49:20;14.80;99.90
4828;DHT22;2428;48.732;9.148;2022-10-18T04:51:46;14.80;99.90
4828;DHT22;2428;48.732;9.148;2022-10-18T04:54:12;14.90;99.90
4828;DHT22;2428;48.732;9.148;2022-10-18T04:56:37;15.00;99.90
4828;DHT22;2428;48.732;9.148;2022-10-18T04:59:03;15.10;99.90
4828;DHT22;2428;48.732;9.148;2022-10-18T05:01:28;15.10;99.90
4828;DHT22;2428;48.732;9.148;2022-10-18T05:03:54;15.10;99.90
4828;DHT22;2428;48.732;9.148;2022-10-18T05:06:21;15.10;99.90
4828;DHT22;2428;48.732;9.148;2022-10-18T05:08:47;15.10;99.90
4828;DHT22;2428;48.732;9.148;2022-10-18T05:11:13;15.10;99.90
4828;DHT22;2428;48.732;9.148;2022-10-18T05:13:39;15.10;99.90
4828;DHT22;2428;48.732;9.148;2022-10-18T05:16:05;15.10;99.90
4828;DHT22;2428;48.732;9.148;2022-10-18T05:18:31;15.10;99.90
4828;DHT22;2428;48.732;9.148;2022-10-18T05:20:57;15.10;99.90
4828;DHT22;2428;48.732;9.148;2022-10-18T05:23:23;15.10;99.90
4828;DHT22;2428;48.732;9.148;2022-10-18T05:25:49;15.10;99.90
4828;DHT22;2428;48.732;9.148;2022-10-18T05:28:15;15.10;99.90
4828;DHT22;2428;48.732;9.148;2022-10-18T05:30:41;15.00;99.90
4828;DHT22;2428;48.732;9.148;2022-10-18T05:33:07;15.10;99.90
4828;DHT22;2428;48.732;9.148;2022-10-18T05:35:33;15.20;99.90
4828;DHT22;2428;48.732;9.148;2022-10-18T05:38:05;15.20;99.90
4828;DHT22;2428;48.732;9.148;2022-10-18T05:40:32;15.20;99.90
4828;DHT22;2428;48.732;9.148;2022-10-18T05:42:57;15.30;99.90
4828;DHT22;2428;48.732;9.148;2022-10-18T05:45:23;15.30;99.90
4828;DHT22;2428;48.732;9.148;2022-10-18T05:47:48;15.30;99.90
4828;DHT22;2428;48.732;9.148;2022-10-18T05:50:14;15.30;99.90
4828;DHT22;2428;48.732;9.148;2022-10-18T05:52:39;15.40;99.90
4828;DHT22;2428;48.732;9.148;2022-10-18T05:55:05;15.40;99.90
4828;DHT22;2428;48.732;9.148;2022-10-18T05:57:31;15.40;99.90
4828;DHT22;2428;48.732;9.148;2022-10-18T05:59:57;15.40;99.90
4828;DHT22;2428;48.732;9.148;2022-10-18T06:02:22;15.60;99.90
4828;DHT22;2428;48.732;9.148;2022-10-18T06:04:48;15.60;99.90
4828;DHT22;2428;48.732;9.148;2022-10-18T06:07:13;15.70;99.90
4828;DHT22;2428;48.732;9.148;2022-10-18T06:09:39;15.70;99.90
4828;DHT22;2428;48.732;9.148;2022-10-18T06:12:05;15.70;99.90
4828;DHT22;2428;48.732;9.148;2022-10-18T06:14:33;15.70;99.90
4828;DHT22;2428;48.732;9.148;2022-10-18T06:16:59;15.70;99.90
4828;DHT22;2428;48.732;9.148;2022-10-18T06:19:24;15.80;99.90
4828;DHT22;2428;48.732;9.148;2022-10-18T06:21:50;15.80;99.90
4828;DHT22;2428;48.732;9.148;2022-10-18T06:24:15;15.80;99.90
4828;DHT22;2428;48.732;9.148;2022-10-18T06:26:42;15.90;99.90
4828;DHT22;2428;48.732;9.148;2022-10-18T06:29:09;15.90;99.90
4828;DHT22;2428;48.732;9.148;2022-10-18T06:31:34;16.00;99.90
4828;DHT22;2428;48.732;9.148;2022-10-18T06:34:00;16.10;99.90
4828;DHT22;2428;48.732;9.148;2022-10-18T06:36:26;16.20;99.90
4828;DHT22;2428;48.732;9.148;2022-10-18T06:38:53;16.30;99.90
4828;DHT22;2428;48.732;9.148;2022-10-18T06:41:18;16.40;99.90
4828;DHT22;2428;48.732;9.148;2022-10-18T06:43:49;16.50;99.90
4828;DHT22;2428;48.732;9.148;2022-10-18T06:46:15;16.50;99.90
4828;DHT22;2428;48.732;9.148;2022-10-18T06:48:40;16.60;99.90
4828;DHT22;2428;48.732;9.148;2022-10-18T06:51:06;16.60;99.90
4828;DHT22;2428;48.732;9.148;2022-10-18T06:53:35;16.60;99.90
4828;DHT22;2428;48.732;9.148;2022-10-18T06:56:03;16.70;99.90
4828;DHT22;2428;48.732;9.148;2022-10-18T06:58:29;16.70;99.90
4828;DHT22;2428;48.732;9.148;2022-10-18T07:00:55;16.70;99.90
4828;DHT22;2428;48.732;9.148;2022-10-18T07:03:21;16.80;99.90
4828;DHT22;2428;48.732;9.148;2022-10-18T07:05:47;16.80;99.90
4828;DHT22;2428;48.732;9.148;2022-10-18T07:08:13;16.90;99.90
4828;DHT22;2428;48.732;9.148;2022-10-18T07:10:39;17.10;99.90
4828;DHT22;2428;48.732;9.148;2022-10-18T07:13:04;17.00;99.90
4828;DHT22;2428;48.732;9.148;2022-10-18T07:15:30;17.10;99.90
4828;DHT22;2428;48.732;9.148;2022-10-18T07:17:55;17.10;99.90
4828;DHT22;2428;48.732;9.148;2022-10-18T07:20:21;17.10;99.90
4828;DHT22;2428;48.732;9.148;2022-10-18T07:22:47;17.10;99.90
4828;DHT22;2428;48.732;9.148;2022-10-18T07:25:13;17.10;99.90
4828;DHT22;2428;48.732;9.148;2022-10-18T07:27:40;17.10;99.90
4828;DHT22;2428;48.732;9.148;2022-10-18T07:30:08;17.10;99.90
4828;DHT22;2428;48.732;9.148;2022-10-18T07:32:34;17.20;99.90
4828;DHT22;2428;48.732;9.148;2022-10-18T07:34:59;17.20;99.90
4828;DHT22;2428;48.732;9.148;2022-10-18T07:37:25;17.20;99.90
4828;DHT22;2428;48.732;9.148;2022-10-18T07:39:51;17.20;99.90
4828;DHT22;2428;48.732;9.148;2022-10-18T07:42:16;17.30;99.90
4828;DHT22;2428;48.732;9.148;2022-10-18T07:44:42;17.30;99.90
4828;DHT22;2428;48.732;9.148;2022-10-18T07:47:07;17.30;99.90
4828;DHT22;2428;48.732;9.148;2022-10-18T07:49:33;17.30;99.90
4828;DHT22;2428;48.732;9.148;2022-10-18T07:51:58;17.30;99.90
4828;DHT22;2428;48.732;9.148;2022-10-18T07:54:24;17.40;99.90
4828;DHT22;2428;48.732;9.148;2022-10-18T07:56:49;17.50;99.90
4828;DHT22;2428;48.732;9.148;2022-10-18T07:59:15;17.50;99.90
4828;DHT22;2428;48.732;9.148;2022-10-18T08:01:41;17.50;99.90
4828;DHT22;2428;48.732;9.148;2022-10-18T08:04:06;17.70;99.90
4828;DHT22;2428;48.732;9.148;2022-10-18T08:06:32;17.70;99.90
4828;DHT22;2428;48.732;9.148;2022-10-18T08:08:57;17.70;99.90
4828;DHT22;2428;48.732;9.148;2022-10-18T08:11:24;17.80;99.90
4828;DHT22;2428;48.732;9.148;2022-10-18T08:13:51;17.80;99.90
4828;DHT22;2428;48.732;9.148;2022-10-18T08:16:27;17.90;99.90
4828;DHT22;2428;48.732;9.148;2022-10-18T08:18:53;17.90;99.90
4828;DHT22;2428;48.732;9.148;2022-10-18T08:21:20;17.90;99.90
4828;DHT22;2428;48.732;9.148;2022-10-18T08:23:46;17.90;99.90
4828;DHT22;2428;48.732;9.148;2022-10-18T08:26:17;17.90;99.90
4828;DHT22;2428;48.732;9.148;2022-10-18T08:28:43;17.90;99.90
4828;DHT22;2428;48.732;9.148;2022-10-18T08:31:11;17.90;99.90
4828;DHT22;2428;48.732;9.148;2022-10-18T08:33:38;18.00;99.90
4828;DHT22;2428;48.732;9.148;2022-10-18T08:36:05;18.00;99.90
4828;DHT22;2428;48.732;9.148;2022-10-18T08:38:35;18.00;99.90
4828;DHT22;2428;48.732;9.148;2022-10-18T08:44:14;18.10;99.90
4828;DHT22;2428;48.732;9.148;2022-10-18T08:46:45;18.20;99.90
4828;DHT22;2428;48.732;9.148;2022-10-18T08:49:28;18.20;99.90
4828;DHT22;2428;48.732;9.148;2022-10-18T08:51:56;18.30;99.90
4828;DHT22;2428;48.732;9.148;2022-10-18T08:54:37;18.30;99.90
4828;DHT22;2428;48.732;9.148;2022-10-18T08:57:12;18.30;99.90
4828;DHT22;2428;48.732;9.148;2022-10-18T08:59:40;18.30;99.90
4828;DHT22;2428;48.732;9.148;2022-10-18T09:05:30;18.50;99.90
4828;DHT22;2428;48.732;9.148;2022-10-18T09:18:20;19.00;99.90
4828;DHT22;2428;48.732;9.148;2022-10-18T09:20:52;19.60;99.90
4828;DHT22;2428;48.732;9.148;2022-10-18T09:23:21;19.50;99.90
4828;DHT22;2428;48.732;9.148;2022-10-18T09:26:09;19.40;99.90
4828;DHT22;2428;48.732;9.148;2022-10-18T09:31:43;19.50;99.90
4828;DHT22;2428;48.732;9.148;2022-10-18T09:36:44;21.30;99.90
4828;DHT22;2428;48.732;9.148;2022-10-18T09:39:13;22.50;99.90
4828;DHT22;2428;48.732;9.148;2022-10-18T09:42:03;22.90;99.90
4828;DHT22;2428;48.732;9.148;2022-10-18T09:44:34;23.20;99.90
4828;DHT22;2428;48.732;9.148;2022-10-18T09:49:56;21.90;99.90
4828;DHT22;2428;48.732;9.148;2022-10-18T09:52:44;21.30;99.90
4828;DHT22;2428;48.732;9.148;2022-10-18T09:55:21;20.60;99.90
4828;DHT22;2428;48.732;9.148;2022-10-18T09:57:55;20.30;99.90
4828;DHT22;2428;48.732;9.148;2022-10-18T10:00:31;19.90;99.90
4828;DHT22;2428;48.732;9.148;2022-10-18T10:03:00;19.90;99.90
4828;DHT22;2428;48.732;9.148;2022-10-18T10:05:26;20.00;99.90
4828;DHT22;2428;48.732;9.148;2022-10-18T10:07:57;20.10;99.90
4828;DHT22;2428;48.732;9.148;2022-10-18T10:10:28;20.20;99.90
4828;DHT22;2428;48.732;9.148;2022-10-18T10:13:17;20.40;99.90
4828;DHT22;2428;48.732;9.148;2022-10-18T10:15:59;20.60;99.90
4828;DHT22;2428;48.732;9.148;2022-10-18T10:18:28;20.80;99.90
4828;DHT22;2428;48.732;9.148;2022-10-18T10:21:01;21.10;99.90
4828;DHT22;2428;48.732;9.148;2022-10-18T10:23:32;21.10;99.90
4828;DHT22;2428;48.732;9.148;2022-10-18T10:26:04;21.00;99.90
4828;DHT22;2428;48.732;9.148;2022-10-18T10:28:34;21.00;99.90
4828;DHT22;2428;48.732;9.148;2022-10-18T10:34:30;21.00;99.90
4828;DHT22;2428;48.732;9.148;2022-10-18T10:36:51;20.90;99.90
4828;DHT22;2428;48.732;9.148;2022-10-18T10:39:19;20.90;99.90
4828;DHT22;2428;48.732;9.148;2022-10-18T10:41:53;20.90;99.90
4828;DHT22;2428;48.732;9.148;2022-10-18T10:44:23;20.90;99.90
4828;DHT22;2428;48.732;9.148;2022-10-18T10:46:50;20.80;99.90
4828;DHT22;2428;48.732;9.148;2022-10-18T10:49:21;20.60;99.90
4828;DHT22;2428;48.732;9.148;2022-10-18T10:52:23;20.50;99.90
4828;DHT22;2428;48.732;9.148;2022-10-18T10:54:52;20.50;99.90
4828;DHT22;2428;48.732;9.148;2022-10-18T10:57:23;20.50;99.90
4828;DHT22;2428;48.732;9.148;2022-10-18T10:59:52;20.50;99.90
4828;DHT22;2428;48.732;9.148;2022-10-18T11:02:21;20.50;99.90
4828;DHT22;2428;48.732;9.148;2022-10-18T11:04:53;20.50;99.90
4828;DHT22;2428;48.732;9.148;2022-10-18T11:17:42;20.90;99.90
4828;DHT22;2428;48.732;9.148;2022-10-18T11:25:22;20.80;99.90
4828;DHT22;2428;48.732;9.148;2022-10-18T11:28:02;20.70;99.90
4828;DHT22;2428;48.732;9.148;2022-10-18T11:30:58;20.60;99.90
4828;DHT22;2428;48.732;9.148;2022-10-18T11:36:06;20.50;99.90
4828;DHT22;2428;48.732;9.148;2022-10-18T11:41:28;20.80;99.90
4828;DHT22;2428;48.732;9.148;2022-10-18T11:43:57;20.90;99.90
4828;DHT22;2428;48.732;9.148;2022-10-18T11:49:07;20.90;99.90
4828;DHT22;2428;48.732;9.148;2022-10-18T11:55:12;20.80;99.90
4828;DHT22;2428;48.732;9.148;2022-10-18T12:06:04;20.10;99.90
4828;DHT22;2428;48.732;9.148;2022-10-18T12:08:43;20.00;99.90
4828;DHT22;2428;48.732;9.148;2022-10-18T12:11:20;20.00;99.90
4828;DHT22;2428;48.732;9.148;2022-10-18T12:13:55;20.10;99.90
4828;DHT22;2428;48.732;9.148;2022-10-18T12:16:24;20.20;99.90
4828;DHT22;2428;48.732;9.148;2022-10-18T12:18:55;20.40;99.90
4828;DHT22;2428;48.732;9.148;2022-10-18T12:21:23;20.50;99.90
4828;DHT22;2428;48.732;9.148;2022-10-18T12:23:57;20.60;99.90
4828;DHT22;2428;48.732;9.148;2022-10-18T12:26:25;20.60;99.90
4828;DHT22;2428;48.732;9.148;2022-10-18T12:29:11;20.80;99.90
4828;DHT22;2428;48.732;9.148;2022-10-18T12:31:49;20.90;99.90
4828;DHT22;2428;48.732;9.148;2022-10-18T12:39:37;20.80;99.90
4828;DHT22;2428;48.732;9.148;2022-10-18T12:42:03;20.70;99.90
4828;DHT22;2428;48.732;9.148;2022-10-18T12:44:33;20.60;99.90
4828;DHT22;2428;48.732;9.148;2022-10-18T12:47:01;20.70;99.90
4828;DHT22;2428;48.732;9.148;2022-10-18T12:49:36;20.70;99.90
4828;DHT22;2428;48.732;9.148;2022-10-18T12:52:18;20.70;99.90
4828;DHT22;2428;48.732;9.148;2022-10-18T13:22:07;20.40;99.90
4828;DHT22;2428;48.732;9.148;2022-10-18T13:25:03;20.50;99.90
4828;DHT22;2428;48.732;9.148;2022-10-18T13:27:36;20.60;99.90
4828;DHT22;2428;48.732;9.148;2022-10-18T13:33:04;20.70;99.90
4828;DHT22;2428;48.732;9.148;2022-10-18T13:41:02;20.60;99.90
4828;DHT22;2428;48.732;9.148;2022-10-18T13:57:43;20.60;99.90
4828;DHT22;2428;48.732;9.148;2022-10-18T14:00:35;20.60;99.90
4828;DHT22;2428;48.732;9.148;2022-10-18T14:03:23;20.60;99.90
4828;DHT22;2428;48.732;9.148;2022-10-18T14:06:19;20.60;99.90
4828;DHT22;2428;48.732;9.148;2022-10-18T14:09:00;20.50;99.90
4828;DHT22;2428;48.732;9.148;2022-10-18T14:11:48;20.60;99.90
4828;DHT22;2428;48.732;9.148;2022-10-18T14:19:32;20.60;99.90
4828;DHT22;2428;48.732;9.148;2022-10-18T14:22:09;20.50;99.90
4828;DHT22;2428;48.732;9.148;2022-10-18T14:24:38;20.50;99.90
4828;DHT22;2428;48.732;9.148;2022-10-18T14:27:26;20.40;99.90
4828;DHT22;2428;48.732;9.148;2022-10-18T14:32:44;20.20;99.90
4828;DHT22;2428;48.732;9.148;2022-10-18T14:35:17;20.20;99.90
4828;DHT22;2428;48.732;9.148;2022-10-18T14:37:46;20.10;99.90
4828;DHT22;2428;48.732;9.148;2022-10-18T14:42:53;20.00;99.90
4828;DHT22;2428;48.732;9.148;2022-10-18T14:45:19;19.90;99.90
4828;DHT22;2428;48.732;9.148;2022-10-18T14:47:45;19.80;99.90
4828;DHT22;2428;48.732;9.148;2022-10-18T14:50:22;19.70;99.90
4828;DHT22;2428;48.732;9.148;2022-10-18T14:52:48;19.70;99.90
4828;DHT22;2428;48.732;9.148;2022-10-18T14:55:22;19.70;99.90
4828;DHT22;2428;48.732;9.148;2022-10-18T14:57:48;19.60;99.90
4828;DHT22;2428;48.732;9.148;2022-10-18T15:00:32;19.60;99.90
4828;DHT22;2428;48.732;9.148;2022-10-18T15:03:00;19.60;99.90
4828;DHT22;2428;48.732;9.148;2022-10-18T15:05:25;19.70;99.90
4828;DHT22;2428;48.732;9.148;2022-10-18T15:07:52;19.70;99.90
4828;DHT22;2428;48.732;9.148;2022-10-18T15:10:21;19.70;99.90
4828;DHT22;2428;48.732;9.148;2022-10-18T15:12:48;19.70;99.90
4828;DHT22;2428;48.732;9.148;2022-10-18T15:15:21;19.60;99.90
4828;DHT22;2428;48.732;9.148;2022-10-18T15:17:48;19.50;99.90
4828;DHT22;2428;48.732;9.148;2022-10-18T15:22:45;19.50;99.90
4828;DHT22;2428;48.732;9.148;2022-10-18T15:25:15;19.40;99.90
4828;DHT22;2428;48.732;9.148;2022-10-18T15:28:00;19.40;99.90
4828;DHT22;2428;48.732;9.148;2022-10-18T15:30:39;19.30;99.90
4828;DHT22;2428;48.732;9.148;2022-10-18T15:33:20;19.30;99.90
4828;DHT22;2428;48.732;9.148;2022-10-18T15:35:46;19.30;99.90
4828;DHT22;2428;48.732;9.148;2022-10-18T15:40:49;19.10;99.90
4828;DHT22;2428;48.732;9.148;2022-10-18T15:45:59;18.90;99.90
4828;DHT22;2428;48.732;9.148;2022-10-18T15:48:38;18.90;99.90
4828;DHT22;2428;48.732;9.148;2022-10-18T15:51:18;18.90;99.90
4828;DHT22;2428;48.732;9.148;2022-10-18T15:53:52;18.90;99.90
4828;DHT22;2428;48.732;9.148;2022-10-18T15:56:29;18.80;99.90
4828;DHT22;2428;48.732;9.148;2022-10-18T15:58:56;18.80;99.90
4828;DHT22;2428;48.732;9.148;2022-10-18T16:01:32;18.80;99.90
4828;DHT22;2428;48.732;9.148;2022-10-18T16:03:59;18.90;99.90
4828;DHT22;2428;48.732;9.148;2022-10-18T16:06:25;18.80;99.90
4828;DHT22;2428;48.732;9.148;2022-10-18T16:08:52;18.80;99.90
4828;DHT22;2428;48.732;9.148;2022-10-18T16:11:23;18.80;99.90
4828;DHT22;2428;48.732;9.148;2022-10-18T16:13:49;18.70;99.90
4828;DHT22;2428;48.732;9.148;2022-10-18T16:16:19;18.60;99.90
4828;DHT22;2428;48.732;9.148;2022-10-18T16:18:45;18.60;99.90
4828;DHT22;2428;48.732;9.148;2022-10-18T16:21:25;18.50;99.90
4828;DHT22;2428;48.732;9.148;2022-10-18T16:23:51;18.50;99.90
4828;DHT22;2428;48.732;9.148;2022-10-18T16:26:17;18.40;99.90
4828;DHT22;2428;48.732;9.148;2022-10-18T16:28:44;18.40;99.90
4828;DHT22;2428;48.732;9.148;2022-10-18T16:31:14;18.40;99.90
4828;DHT22;2428;48.732;9.148;2022-10-18T16:33:40;18.40;99.90
4828;DHT22;2428;48.732;9.148;2022-10-18T16:36:06;18.40;99.90
4828;DHT22;2428;48.732;9.148;2022-10-18T16:38:34;18.40;99.90
4828;DHT22;2428;48.732;9.148;2022-10-18T16:41:01;18.30;99.90
4828;DHT22;2428;48.732;9.148;2022-10-18T16:43:27;18.30;99.90
4828;DHT22;2428;48.732;9.148;2022-10-18T16:45:53;18.30;99.90
4828;DHT22;2428;48.732;9.148;2022-10-18T16:48:20;18.20;99.90
4828;DHT22;2428;48.732;9.148;2022-10-18T16:50:47;18.20;99.90
4828;DHT22;2428;48.732;9.148;2022-10-18T16:53:13;18.20;99.90
4828;DHT22;2428;48.732;9.148;2022-10-18T16:55:40;18.10;99.90
4828;DHT22;2428;48.732;9.148;2022-10-18T16:58:06;18.10;99.90
4828;DHT22;2428;48.732;9.148;2022-10-18T17:00:33;18.00;99.90
4828;DHT22;2428;48.732;9.148;2022-10-18T17:02:58;18.00;99.90
4828;DHT22;2428;48.732;9.148;2022-10-18T17:05:24;18.00;99.90
4828;DHT22;2428;48.732;9.148;2022-10-18T17:07:49;18.00;99.90
4828;DHT22;2428;48.732;9.148;2022-10-18T17:10:19;18.00;99.90
4828;DHT22;2428;48.732;9.148;2022-10-18T17:12:45;17.90;99.90
4828;DHT22;2428;48.732;9.148;2022-10-18T17:15:11;17.90;99.90
4828;DHT22;2428;48.732;9.148;2022-10-18T17:17:38;17.80;99.90
4828;DHT22;2428;48.732;9.148;2022-10-18T17:20:06;17.90;99.90
4828;DHT22;2428;48.732;9.148;2022-10-18T17:22:32;17.80;99.90
4828;DHT22;2428;48.732;9.148;2022-10-18T17:24:57;17.80;99.90
4828;DHT22;2428;48.732;9.148;2022-10-18T17:27:23;17.70;99.90
4828;DHT22;2428;48.732;9.148;2022-10-18T17:29:49;17.80;99.90
4828;DHT22;2428;48.732;9.148;2022-10-18T17:32:14;17.70;99.90
4828;DHT22;2428;48.732;9.148;2022-10-18T17:34:40;17.60;99.90
4828;DHT22;2428;48.732;9.148;2022-10-18T17:37:06;17.60;99.90
4828;DHT22;2428;48.732;9.148;2022-10-18T17:39:32;17.50;99.90
4828;DHT22;2428;48.732;9.148;2022-10-18T17:41:58;17.50;99.90
4828;DHT22;2428;48.732;9.148;2022-10-18T17:44:24;17.50;99.90
4828;DHT22;2428;48.732;9.148;2022-10-18T17:46:49;17.40;99.90
4828;DHT22;2428;48.732;9.148;2022-10-18T17:49:15;17.40;99.90
4828;DHT22;2428;48.732;9.148;2022-10-18T17:51:41;17.30;99.90
4828;DHT22;2428;48.732;9.148;2022-10-18T17:54:09;17.30;99.90
4828;DHT22;2428;48.732;9.148;2022-10-18T17:56:34;17.30;99.90
4828;DHT22;2428;48.732;9.148;2022-10-18T17:59:00;17.30;99.90
4828;DHT22;2428;48.732;9.148;2022-10-18T18:01:26;17.40;99.90
4828;DHT22;2428;48.732;9.148;2022-10-18T18:03:59;17.30;99.90
4828;DHT22;2428;48.732;9.148;2022-10-18T18:06:31;17.20;99.90
4828;DHT22;2428;48.732;9.148;2022-10-18T18:09:00;17.20;99.90
4828;DHT22;2428;48.732;9.148;2022-10-18T18:11:29;17.20;99.90
4828;DHT22;2428;48.732;9.148;2022-10-18T18:13:55;17.30;99.90
4828;DHT22;2428;48.732;9.148;2022-10-18T18:16:23;17.30;99.90
4828;DHT22;2428;48.732;9.148;2022-10-18T18:18:53;17.30;99.90
4828;DHT22;2428;48.732;9.148;2022-10-18T18:21:19;17.30;99.90
4828;DHT22;2428;48.732;9.148;2022-10-18T18:23:48;17.20;99.90
4828;DHT22;2428;48.732;9.148;2022-10-18T18:26:14;17.20;99.90
4828;DHT22;2428;48.732;9.148;2022-10-18T18:28:40;17.30;99.90
4828;DHT22;2428;48.732;9.148;2022-10-18T18:31:24;17.20;99.90
4828;DHT22;2428;48.732;9.148;2022-10-18T18:33:52;17.20;99.90
4828;DHT22;2428;48.732;9.148;2022-10-18T18:36:18;17.20;99.90
4828;DHT22;2428;48.732;9.148;2022-10-18T18:38:44;17.10;99.90
4828;DHT22;2428;48.732;9.148;2022-10-18T18:41:11;17.00;99.90
4828;DHT22;2428;48.732;9.148;2022-10-18T18:43:38;17.00;99.90
4828;DHT22;2428;48.732;9.148;2022-10-18T18:46:05;16.90;99.90
4828;DHT22;2428;48.732;9.148;2022-10-18T18:48:32;16.90;99.90
4828;DHT22;2428;48.732;9.148;2022-10-18T18:50:59;16.80;99.90
4828;DHT22;2428;48.732;9.148;2022-10-18T18:53:25;16.80;99.90
4828;DHT22;2428;48.732;9.148;2022-10-18T18:55:50;16.80;99.90
4828;DHT22;2428;48.732;9.148;2022-10-18T18:58:16;16.70;99.90
4828;DHT22;2428;48.732;9.148;2022-10-18T19:00:43;16.70;99.90
4828;DHT22;2428;48.732;9.148;2022-10-18T19:03:08;16.60;99.90
4828;DHT22;2428;48.732;9.148;2022-10-18T19:05:35;16.60;99.90